Washington, DC (20521)

8:34 AM EDT on July 30, 2015 (GMT -0400)
highgate-roslyn | | Change Station
CLOSE
Current Station
Personal Weather Station
Location: Arlington, VA
Elevation: 180 ft
Nearby Weather Stations
Active Advisory: Coastal Flood Advisory

Elev 180 ft 38.90 °N, 77.07 °W | Updated 1 second ago

Mostly Cloudy
Mostly Cloudy
80.2 °F
Feels Like 85 °F
N
0.0
Wind Variable Wind from South
Gusts 0.0 mph

Today
High -- | Low -- °F
--% Chance of Precip.
Yesterday
High -- | Low -- °F
Precip. -- in
6:07 AM 8:21 PM
Waxing Gibbous, 99% visible
Pressure 29.92 in
Visibility 10.0 miles
Clouds Few 2000 ft
Mostly Cloudy 15000 ft
Heat Index 85 °F
Dew Point 74 °F
Humidity 80%
Rainfall 0.00 in
Snow Depth Not available.
UV 0.0 out of 12
Pollen 6.10 out of 12
Air Quality Not available.
Flu Activity Not available.
METAR KDCA 301152Z 19007KT 10SM FEW020 BKN150 27/23 A2992 RMK AO2 SLP132 T02720228 10283 20267 50003

More Conditions Fewer Conditions

Pressure 29.92 in
Visibility 10.0 miles
Clouds Few 2000 ft
Mostly Cloudy 15000 ft
Heat Index 85 °F
Dew Point 74 °F
Humidity 80%
Rainfall 0.00 in
Snow Depth Not available.
UV 0.0 out of 12
Pollen 6.10 out of 12
Air Quality Not available.
Flu Activity Not available.
METAR KDCA 301152Z 19007KT 10SM FEW020 BKN150 27/23 A2992 RMK AO2 SLP132 T02720228 10283 20267 50003

More Conditions Fewer Conditions

10-Day Weather Forecast

×

Almanac

Astronomy

Jul. 30, 2015 Rise Set
Actual Time
Civil Twilight
Nautical Twilight
Astronomical Twilight
Moon
Length of Visible Light
Length of Day
Tomorrow will be .
, % of the Moon is Illuminated

Today's Extremes

State Highs State Lows

Community

WunderPhotos

Upload Photos

1,842,343 photos uploaded!

WunderBlogs® & News

Nearby

Air Quality

  Air Quality AQ Index Pollutant
Not available.

Snow Depth

Station Depth Elevation

Earthquake Activity

City Distance Mag. Time & Date
Minimum magnitude displayed is 2.5.

Coastal Water Temperatures

Place Temperature

Stations

Nearby Weather Stations

Station Location Temp. Windchill Dew Point Humidity Wind Precip. Elev Updated Type
                   
Coastal Flood Advisory
Statement as of 7:52 AM EDT on July 30, 2015

... Coastal Flood Advisory remains in effect until 9 am EDT this
morning...

* tidal anomaly... around 0.9 feet above astronomical prediction.

* Timing... an hour each side of high tide. At the Maine Avenue...
   Washington Channel... high tide is at 7:31 am.

* Expected impacts... minor tidal inundation in sensitive
locations such as the southwest DC Waterfront.

Here are the times of the next high tides
along the Potomac River...
Washington Channel... 8:09 PM and 8:20 am...
Alexandria... 7:49 am and 8:27 PM...
Indian Head... 7:55 PM and 8:06 am...

Precautionary/preparedness actions...

A coastal Flood Advisory indicates that onshore winds and tides
will combine to generate flooding of low areas along the shore.